sensor_id;sensor_type;location;lat;lon;timestamp;temperature;humidity
70166;SHT30;57541;47.408;18.822;2023-06-22T06:46:05;25.41;87.74
70166;SHT30;57541;47.408;18.822;2023-06-22T06:46:36;25.40;87.38
70166;SHT30;57541;47.408;18.822;2023-06-22T06:47:08;25.54;86.94
70166;SHT30;57541;47.408;18.822;2023-06-22T06:47:39;25.58;86.82
70166;SHT30;57541;47.408;18.822;2023-06-22T06:48:10;25.58;86.61
70166;SHT30;57541;47.408;18.822;2023-06-22T06:48:41;25.69;86.12
70166;SHT30;57541;47.408;18.822;2023-06-22T06:49:13;25.77;85.51
70166;SHT30;57541;47.408;18.822;2023-06-22T06:49:44;25.96;85.71
70166;SHT30;57541;47.408;18.822;2023-06-22T06:50:15;26.09;86.02
70166;SHT30;57541;47.408;18.822;2023-06-22T06:50:47;26.09;85.78
70166;SHT30;57541;47.408;18.822;2023-06-22T06:51:19;26.13;86.21
70166;SHT30;57541;47.408;18.822;2023-06-22T06:51:51;26.23;86.90
70166;SHT30;57541;47.408;18.822;2023-06-22T06:52:22;26.29;85.34
70166;SHT30;57541;47.408;18.822;2023-06-22T06:52:54;26.20;84.30
70166;SHT30;57541;47.408;18.822;2023-06-22T06:53:27;26.30;84.60
70166;SHT30;57541;47.408;18.822;2023-06-22T06:54:00;26.39;85.89
70166;SHT30;57541;47.408;18.822;2023-06-22T06:54:31;26.27;85.51
70166;SHT30;57541;47.408;18.822;2023-06-22T06:55:04;26.27;85.95
70166;SHT30;57541;47.408;18.822;2023-06-22T06:55:39;26.30;85.87
70166;SHT30;57541;47.408;18.822;2023-06-22T06:56:10;26.39;85.87
70166;SHT30;57541;47.408;18.822;2023-06-22T06:56:42;26.44;86.33
70166;SHT30;57541;47.408;18.822;2023-06-22T06:57:19;26.35;83.87
70166;SHT30;57541;47.408;18.822;2023-06-22T06:57:51;26.22;83.09
70166;SHT30;57541;47.408;18.822;2023-06-22T06:58:24;26.23;82.62
70166;SHT30;57541;47.408;18.822;2023-06-22T06:58:56;26.15;83.65
70166;SHT30;57541;47.408;18.822;2023-06-22T06:59:30;26.13;84.65
70166;SHT30;57541;47.408;18.822;2023-06-22T07:00:01;26.17;86.11
70166;SHT30;57541;47.408;18.822;2023-06-22T07:00:37;26.15;85.60
70166;SHT30;57541;47.408;18.822;2023-06-22T07:01:09;26.20;83.76
70166;SHT30;57541;47.408;18.822;2023-06-22T07:01:42;26.17;83.08
70166;SHT30;57541;47.408;18.822;2023-06-22T07:02:16;26.29;83.12
70166;SHT30;57541;47.408;18.822;2023-06-22T07:02:47;26.19;84.60
70166;SHT30;57541;47.408;18.822;2023-06-22T07:03:20;26.17;84.88
70166;SHT30;57541;47.408;18.822;2023-06-22T07:03:52;26.30;84.64
70166;SHT30;57541;47.408;18.822;2023-06-22T07:04:25;26.39;84.94
70166;SHT30;57541;47.408;18.822;2023-06-22T07:04:56;26.43;84.46
70166;SHT30;57541;47.408;18.822;2023-06-22T07:05:28;26.46;84.02
70166;SHT30;57541;47.408;18.822;2023-06-22T07:06:00;26.48;84.37
70166;SHT30;57541;47.408;18.822;2023-06-22T07:06:32;26.47;83.06
70166;SHT30;57541;47.408;18.822;2023-06-22T07:07:05;26.47;82.23
70166;SHT30;57541;47.408;18.822;2023-06-22T07:07:37;26.51;82.02
70166;SHT30;57541;47.408;18.822;2023-06-22T07:08:09;26.53;82.53
70166;SHT30;57541;47.408;18.822;2023-06-22T07:08:40;26.54;82.88
70166;SHT30;57541;47.408;18.822;2023-06-22T07:09:12;26.44;82.95
70166;SHT30;57541;47.408;18.822;2023-06-22T07:09:44;26.36;82.52
70166;SHT30;57541;47.408;18.822;2023-06-22T07:10:16;26.35;82.06
70166;SHT30;57541;47.408;18.822;2023-06-22T07:10:47;26.37;82.80
70166;SHT30;57541;47.408;18.822;2023-06-22T07:11:19;26.47;83.12
70166;SHT30;57541;47.408;18.822;2023-06-22T07:11:51;26.51;82.68
70166;SHT30;57541;47.408;18.822;2023-06-22T07:12:22;26.46;82.58
70166;SHT30;57541;47.408;18.822;2023-06-22T07:12:54;26.51;83.15
70166;SHT30;57541;47.408;18.822;2023-06-22T07:13:26;26.61;83.19
70166;SHT30;57541;47.408;18.822;2023-06-22T07:13:57;26.61;83.26
70166;SHT30;57541;47.408;18.822;2023-06-22T07:14:29;26.65;82.83
70166;SHT30;57541;47.408;18.822;2023-06-22T07:15:07;26.65;82.91
70166;SHT30;57541;47.408;18.822;2023-06-22T07:15:39;26.65;82.72
70166;SHT30;57541;47.408;18.822;2023-06-22T07:16:11;26.77;82.56
70166;SHT30;57541;47.408;18.822;2023-06-22T07:16:43;26.67;82.62
70166;SHT30;57541;47.408;18.822;2023-06-22T07:17:15;26.68;83.01
70166;SHT30;57541;47.408;18.822;2023-06-22T07:17:47;26.73;82.73
70166;SHT30;57541;47.408;18.822;2023-06-22T07:18:18;26.73;82.02
70166;SHT30;57541;47.408;18.822;2023-06-22T07:18:50;26.71;82.20
70166;SHT30;57541;47.408;18.822;2023-06-22T07:19:25;26.73;82.40
70166;SHT30;57541;47.408;18.822;2023-06-22T07:19:58;26.74;82.89
70166;SHT30;57541;47.408;18.822;2023-06-22T07:20:29;26.77;82.72
70166;SHT30;57541;47.408;18.822;2023-06-22T07:21:02;26.77;82.67
70166;SHT30;57541;47.408;18.822;2023-06-22T07:21:37;26.74;83.14
70166;SHT30;57541;47.408;18.822;2023-06-22T07:22:10;26.81;83.42
70166;SHT30;57541;47.408;18.822;2023-06-22T07:22:43;26.80;82.22
70166;SHT30;57541;47.408;18.822;2023-06-22T07:23:16;26.90;82.56
70166;SHT30;57541;47.408;18.822;2023-06-22T07:23:49;26.94;82.83
70166;SHT30;57541;47.408;18.822;2023-06-22T07:24:21;26.88;81.40
70166;SHT30;57541;47.408;18.822;2023-06-22T07:24:53;26.88;82.19
70166;SHT30;57541;47.408;18.822;2023-06-22T07:25:25;26.90;82.23
70166;SHT30;57541;47.408;18.822;2023-06-22T07:25:57;26.91;82.71
70166;SHT30;57541;47.408;18.822;2023-06-22T07:26:28;26.96;82.52
70166;SHT30;57541;47.408;18.822;2023-06-22T07:27:00;27.04;82.95
70166;SHT30;57541;47.408;18.822;2023-06-22T07:27:33;27.12;82.62
70166;SHT30;57541;47.408;18.822;2023-06-22T07:28:09;27.12;83.15
70166;SHT30;57541;47.408;18.822;2023-06-22T07:28:40;27.16;83.92
70166;SHT30;57541;47.408;18.822;2023-06-22T07:29:12;27.18;82.05
70166;SHT30;57541;47.408;18.822;2023-06-22T07:29:44;27.12;80.40
70166;SHT30;57541;47.408;18.822;2023-06-22T07:30:15;26.95;79.85
70166;SHT30;57541;47.408;18.822;2023-06-22T07:30:47;27.02;80.34
70166;SHT30;57541;47.408;18.822;2023-06-22T07:31:19;27.15;81.03
70166;SHT30;57541;47.408;18.822;2023-06-22T07:31:52;27.26;81.35
70166;SHT30;57541;47.408;18.822;2023-06-22T07:32:24;27.29;82.14
70166;SHT30;57541;47.408;18.822;2023-06-22T07:32:56;27.29;81.65
70166;SHT30;57541;47.408;18.822;2023-06-22T07:33:28;27.36;81.52
70166;SHT30;57541;47.408;18.822;2023-06-22T07:34:00;27.31;81.11
70166;SHT30;57541;47.408;18.822;2023-06-22T07:34:31;27.35;83.40
70166;SHT30;57541;47.408;18.822;2023-06-22T07:35:04;27.39;82.26
70166;SHT30;57541;47.408;18.822;2023-06-22T07:35:36;27.33;82.04
70166;SHT30;57541;47.408;18.822;2023-06-22T07:36:08;27.39;81.98
70166;SHT30;57541;47.408;18.822;2023-06-22T07:36:39;27.42;82.44
70166;SHT30;57541;47.408;18.822;2023-06-22T07:37:11;27.47;80.74
70166;SHT30;57541;47.408;18.822;2023-06-22T07:37:43;27.57;81.95
70166;SHT30;57541;47.408;18.822;2023-06-22T07:38:14;27.53;81.61
70166;SHT30;57541;47.408;18.822;2023-06-22T07:38:47;27.54;81.11
70166;SHT30;57541;47.408;18.822;2023-06-22T07:39:18;27.62;81.63
70166;SHT30;57541;47.408;18.822;2023-06-22T07:39:51;27.62;83.36
70166;SHT30;57541;47.408;18.822;2023-06-22T07:40:25;27.74;82.33
70166;SHT30;57541;47.408;18.822;2023-06-22T07:40:56;27.74;83.38
70166;SHT30;57541;47.408;18.822;2023-06-22T07:41:28;27.83;82.32
70166;SHT30;57541;47.408;18.822;2023-06-22T07:42:00;27.84;81.36
70166;SHT30;57541;47.408;18.822;2023-06-22T07:42:32;27.87;82.53
70166;SHT30;57541;47.408;18.822;2023-06-22T07:43:07;27.56;80.57
70166;SHT30;57541;47.408;18.822;2023-06-22T07:43:39;27.54;81.25
70166;SHT30;57541;47.408;18.822;2023-06-22T07:44:10;27.57;80.94
70166;SHT30;57541;47.408;18.822;2023-06-22T07:44:42;27.69;81.30
70166;SHT30;57541;47.408;18.822;2023-06-22T07:45:14;27.82;81.60
70166;SHT30;57541;47.408;18.822;2023-06-22T07:45:49;27.87;81.20
70166;SHT30;57541;47.408;18.822;2023-06-22T07:46:24;27.93;81.44
70166;SHT30;57541;47.408;18.822;2023-06-22T07:46:56;28.00;81.85
70166;SHT30;57541;47.408;18.822;2023-06-22T07:47:28;27.97;80.78
70166;SHT30;57541;47.408;18.822;2023-06-22T07:47:59;27.90;80.64
70166;SHT30;57541;47.408;18.822;2023-06-22T07:48:31;27.83;79.69
70166;SHT30;57541;47.408;18.822;2023-06-22T07:49:03;27.73;80.77
70166;SHT30;57541;47.408;18.822;2023-06-22T07:49:35;27.66;81.03
70166;SHT30;57541;47.408;18.822;2023-06-22T07:50:07;27.73;80.91
70166;SHT30;57541;47.408;18.822;2023-06-22T07:50:39;27.80;81.04
70166;SHT30;57541;47.408;18.822;2023-06-22T07:51:10;27.83;79.75
70166;SHT30;57541;47.408;18.822;2023-06-22T07:51:44;27.73;80.25
70166;SHT30;57541;47.408;18.822;2023-06-22T07:52:16;27.93;81.21
70166;SHT30;57541;47.408;18.822;2023-06-22T07:52:47;27.97;80.32
70166;SHT30;57541;47.408;18.822;2023-06-22T07:53:20;27.98;80.99
70166;SHT30;57541;47.408;18.822;2023-06-22T07:53:52;27.97;79.02
70166;SHT30;57541;47.408;18.822;2023-06-22T07:54:23;28.03;79.47
70166;SHT30;57541;47.408;18.822;2023-06-22T07:54:55;28.05;79.71
70166;SHT30;57541;47.408;18.822;2023-06-22T07:55:27;28.08;79.35
70166;SHT30;57541;47.408;18.822;2023-06-22T07:55:59;28.10;78.56
70166;SHT30;57541;47.408;18.822;2023-06-22T07:56:31;28.07;80.63
70166;SHT30;57541;47.408;18.822;2023-06-22T07:57:03;28.11;78.05
70166;SHT30;57541;47.408;18.822;2023-06-22T07:57:36;28.15;77.96
70166;SHT30;57541;47.408;18.822;2023-06-22T07:58:07;28.21;78.72
70166;SHT30;57541;47.408;18.822;2023-06-22T07:58:39;28.24;79.55
70166;SHT30;57541;47.408;18.822;2023-06-22T07:59:11;28.15;79.71
70166;SHT30;57541;47.408;18.822;2023-06-22T07:59:43;28.07;79.92
70166;SHT30;57541;47.408;18.822;2023-06-22T08:00:15;28.07;77.32
70166;SHT30;57541;47.408;18.822;2023-06-22T08:00:47;28.11;76.90
70166;SHT30;57541;47.408;18.822;2023-06-22T08:01:20;28.15;77.84
70166;SHT30;57541;47.408;18.822;2023-06-22T08:01:53;28.05;79.17
70166;SHT30;57541;47.408;18.822;2023-06-22T08:02:27;28.08;79.52
70166;SHT30;57541;47.408;18.822;2023-06-22T08:02:58;28.11;80.06
70166;SHT30;57541;47.408;18.822;2023-06-22T08:03:30;28.18;80.13
70166;SHT30;57541;47.408;18.822;2023-06-22T08:04:02;28.27;80.84
70166;SHT30;57541;47.408;18.822;2023-06-22T08:04:34;28.29;80.04
70166;SHT30;57541;47.408;18.822;2023-06-22T08:05:07;28.29;80.90
70166;SHT30;57541;47.408;18.822;2023-06-22T08:05:52;28.38;80.29
70166;SHT30;57541;47.408;18.822;2023-06-22T08:06:24;28.35;78.36
70166;SHT30;57541;47.408;18.822;2023-06-22T08:06:55;28.35;79.04
70166;SHT30;57541;47.408;18.822;2023-06-22T08:07:27;28.41;79.24
70166;SHT30;57541;47.408;18.822;2023-06-22T08:07:59;28.37;79.28
70166;SHT30;57541;47.408;18.822;2023-06-22T08:08:30;28.40;79.22
70166;SHT30;57541;47.408;18.822;2023-06-22T08:09:02;28.47;78.37
70166;SHT30;57541;47.408;18.822;2023-06-22T08:09:34;28.52;75.89
70166;SHT30;57541;47.408;18.822;2023-06-22T08:10:10;28.44;78.28
70166;SHT30;57541;47.408;18.822;2023-06-22T08:10:42;28.59;78.47
70166;SHT30;57541;47.408;18.822;2023-06-22T08:11:14;28.63;78.88
70166;SHT30;57541;47.408;18.822;2023-06-22T08:11:46;28.68;78.56
70166;SHT30;57541;47.408;18.822;2023-06-22T08:12:18;28.76;78.07
70166;SHT30;57541;47.408;18.822;2023-06-22T08:12:50;28.75;77.01
70166;SHT30;57541;47.408;18.822;2023-06-22T08:13:23;28.72;78.03
70166;SHT30;57541;47.408;18.822;2023-06-22T08:13:55;28.78;77.16
70166;SHT30;57541;47.408;18.822;2023-06-22T08:14:29;28.89;77.04
70166;SHT30;57541;47.408;18.822;2023-06-22T08:15:01;28.83;77.62
70166;SHT30;57541;47.408;18.822;2023-06-22T08:15:33;28.73;77.38
70166;SHT30;57541;47.408;18.822;2023-06-22T08:16:05;28.79;77.25
70166;SHT30;57541;47.408;18.822;2023-06-22T08:16:38;28.83;76.65
70166;SHT30;57541;47.408;18.822;2023-06-22T08:17:11;28.98;77.38
70166;SHT30;57541;47.408;18.822;2023-06-22T08:17:44;28.80;76.95
70166;SHT30;57541;47.408;18.822;2023-06-22T08:18:16;28.66;75.79
70166;SHT30;57541;47.408;18.822;2023-06-22T08:18:48;28.62;76.91
70166;SHT30;57541;47.408;18.822;2023-06-22T08:19:19;28.79;74.90
70166;SHT30;57541;47.408;18.822;2023-06-22T08:19:51;28.90;76.35
70166;SHT30;57541;47.408;18.822;2023-06-22T08:20:23;28.80;74.82
70166;SHT30;57541;47.408;18.822;2023-06-22T08:20:55;28.83;75.29
70166;SHT30;57541;47.408;18.822;2023-06-22T08:21:26;28.82;75.69
70166;SHT30;57541;47.408;18.822;2023-06-22T08:21:58;28.76;75.86
70166;SHT30;57541;47.408;18.822;2023-06-22T08:22:30;28.79;76.93
70166;SHT30;57541;47.408;18.822;2023-06-22T08:23:02;28.70;76.86
70166;SHT30;57541;47.408;18.822;2023-06-22T08:23:37;28.78;76.33
70166;SHT30;57541;47.408;18.822;2023-06-22T08:24:09;28.82;76.93
70166;SHT30;57541;47.408;18.822;2023-06-22T08:24:41;28.84;75.48
70166;SHT30;57541;47.408;18.822;2023-06-22T08:25:12;28.92;74.69
70166;SHT30;57541;47.408;18.822;2023-06-22T08:25:45;28.88;75.09
70166;SHT30;57541;47.408;18.822;2023-06-22T08:26:19;28.88;74.82
70166;SHT30;57541;47.408;18.822;2023-06-22T08:26:51;28.76;74.25
70166;SHT30;57541;47.408;18.822;2023-06-22T08:27:23;28.73;74.23
70166;SHT30;57541;47.408;18.822;2023-06-22T08:27:55;28.79;75.00
70166;SHT30;57541;47.408;18.822;2023-06-22T08:28:27;29.00;76.69
70166;SHT30;57541;47.408;18.822;2023-06-22T08:28:58;28.80;74.33
70166;SHT30;57541;47.408;18.822;2023-06-22T08:29:30;28.90;76.74
70166;SHT30;57541;47.408;18.822;2023-06-22T08:30:02;28.96;75.48
70166;SHT30;57541;47.408;18.822;2023-06-22T08:30:34;28.99;75.13
70166;SHT30;57541;47.408;18.822;2023-06-22T08:31:06;28.99;75.61
70166;SHT30;57541;47.408;18.822;2023-06-22T08:31:37;28.99;76.24
70166;SHT30;57541;47.408;18.822;2023-06-22T08:32:09;29.03;77.67
70166;SHT30;57541;47.408;18.822;2023-06-22T08:32:41;29.10;76.46
70166;SHT30;57541;47.408;18.822;2023-06-22T08:33:13;29.10;76.00
70166;SHT30;57541;47.408;18.822;2023-06-22T08:33:57;29.09;75.68
70166;SHT30;57541;47.408;18.822;2023-06-22T08:34:29;29.14;75.41
70166;SHT30;57541;47.408;18.822;2023-06-22T08:35:02;29.35;74.54
70166;SHT30;57541;47.408;18.822;2023-06-22T08:35:33;29.48;74.88
70166;SHT30;57541;47.408;18.822;2023-06-22T08:36:05;29.53;74.24
70166;SHT30;57541;47.408;18.822;2023-06-22T08:36:37;29.24;72.39
70166;SHT30;57541;47.408;18.822;2023-06-22T08:37:13;29.43;73.93
70166;SHT30;57541;47.408;18.822;2023-06-22T08:37:44;29.58;75.41
70166;SHT30;57541;47.408;18.822;2023-06-22T08:38:22;29.69;73.51
70166;SHT30;57541;47.408;18.822;2023-06-22T08:38:53;29.74;73.91
70166;SHT30;57541;47.408;18.822;2023-06-22T08:39:25;29.72;73.50
70166;SHT30;57541;47.408;18.822;2023-06-22T08:39:59;29.85;74.80
70166;SHT30;57541;47.408;18.822;2023-06-22T08:40:31;29.74;74.79
70166;SHT30;57541;47.408;18.822;2023-06-22T08:41:02;29.93;74.45
70166;SHT30;57541;47.408;18.822;2023-06-22T08:41:34;29.85;73.81
70166;SHT30;57541;47.408;18.822;2023-06-22T08:42:06;29.68;73.62
70166;SHT30;57541;47.408;18.822;2023-06-22T08:42:40;29.44;74.47
70166;SHT30;57541;47.408;18.822;2023-06-22T08:43:12;29.46;74.63
70166;SHT30;57541;47.408;18.822;2023-06-22T08:43:44;29.50;75.36
70166;SHT30;57541;47.408;18.822;2023-06-22T08:44:18;29.64;75.31
70166;SHT30;57541;47.408;18.822;2023-06-22T08:44:51;29.59;74.16
70166;SHT30;57541;47.408;18.822;2023-06-22T08:45:23;29.77;74.26
70166;SHT30;57541;47.408;18.822;2023-06-22T08:45:54;29.92;73.28
70166;SHT30;57541;47.408;18.822;2023-06-22T08:46:26;29.93;73.31
70166;SHT30;57541;47.408;18.822;2023-06-22T08:47:02;30.08;74.70
70166;SHT30;57541;47.408;18.822;2023-06-22T08:47:35;30.04;74.51
70166;SHT30;57541;47.408;18.822;2023-06-22T08:48:07;30.15;74.51
70166;SHT30;57541;47.408;18.822;2023-06-22T08:48:38;29.98;75.32
70166;SHT30;57541;47.408;18.822;2023-06-22T08:49:10;30.02;73.97
70166;SHT30;57541;47.408;18.822;2023-06-22T08:49:42;29.79;73.41
70166;SHT30;57541;47.408;18.822;2023-06-22T08:50:14;29.89;72.33
70166;SHT30;57541;47.408;18.822;2023-06-22T08:50:45;30.05;73.48
70166;SHT30;57541;47.408;18.822;2023-06-22T08:51:17;30.15;73.46
70166;SHT30;57541;47.408;18.822;2023-06-22T08:51:49;30.01;71.82
70166;SHT30;57541;47.408;18.822;2023-06-22T08:52:21;29.89;73.22
70166;SHT30;57541;47.408;18.822;2023-06-22T08:52:52;30.01;74.13
70166;SHT30;57541;47.408;18.822;2023-06-22T08:53:24;29.93;73.58
70166;SHT30;57541;47.408;18.822;2023-06-22T08:53:56;29.96;74.11
70166;SHT30;57541;47.408;18.822;2023-06-22T08:54:27;29.93;74.09
70166;SHT30;57541;47.408;18.822;2023-06-22T08:54:59;29.90;74.35
70166;SHT30;57541;47.408;18.822;2023-06-22T08:55:31;30.15;75.04
70166;SHT30;57541;47.408;18.822;2023-06-22T08:56:03;30.23;74.92
70166;SHT30;57541;47.408;18.822;2023-06-22T08:56:35;30.25;75.21
70166;SHT30;57541;47.408;18.822;2023-06-22T08:57:07;30.15;75.09
70166;SHT30;57541;47.408;18.822;2023-06-22T08:57:39;30.20;75.24
70166;SHT30;57541;47.408;18.822;2023-06-22T08:58:10;30.08;73.16
70166;SHT30;57541;47.408;18.822;2023-06-22T08:58:42;30.15;73.04
70166;SHT30;57541;47.408;18.822;2023-06-22T08:59:14;30.27;72.44
70166;SHT30;57541;47.408;18.822;2023-06-22T08:59:45;30.37;72.17
70166;SHT30;57541;47.408;18.822;2023-06-22T09:00:18;30.29;72.53
70166;SHT30;57541;47.408;18.822;2023-06-22T09:00:51;30.53;72.97
70166;SHT30;57541;47.408;18.822;2023-06-22T09:01:23;30.68;72.55
70166;SHT30;57541;47.408;18.822;2023-06-22T09:01:55;30.92;71.96
70166;SHT30;57541;47.408;18.822;2023-06-22T09:02:29;31.01;72.73
70166;SHT30;57541;47.408;18.822;2023-06-22T09:03:03;30.99;71.27
70166;SHT30;57541;47.408;18.822;2023-06-22T09:03:36;30.99;70.44
70166;SHT30;57541;47.408;18.822;2023-06-22T09:04:09;31.12;71.04
70166;SHT30;57541;47.408;18.822;2023-06-22T09:04:41;31.16;70.51
70166;SHT30;57541;47.408;18.822;2023-06-22T09:05:14;31.02;71.27
70166;SHT30;57541;47.408;18.822;2023-06-22T09:05:46;31.11;71.19
70166;SHT30;57541;47.408;18.822;2023-06-22T09:06:18;31.28;70.90
70166;SHT30;57541;47.408;18.822;2023-06-22T09:06:49;31.56;70.35
70166;SHT30;57541;47.408;18.822;2023-06-22T09:07:24;31.70;70.83
70166;SHT30;57541;47.408;18.822;2023-06-22T09:07:56;32.03;70.82
70166;SHT30;57541;47.408;18.822;2023-06-22T09:08:30;32.34;71.05
70166;SHT30;57541;47.408;18.822;2023-06-22T09:09:03;32.52;70.13
70166;SHT30;57541;47.408;18.822;2023-06-22T09:09:35;32.82;69.49
70166;SHT30;57541;47.408;18.822;2023-06-22T09:10:07;32.90;68.11
70166;SHT30;57541;47.408;18.822;2023-06-22T09:10:39;33.06;66.44
70166;SHT30;57541;47.408;18.822;2023-06-22T09:11:10;33.54;66.25
70166;SHT30;57541;47.408;18.822;2023-06-22T09:11:42;33.70;65.08
70166;SHT30;57541;47.408;18.822;2023-06-22T09:12:14;33.84;65.17
70166;SHT30;57541;47.408;18.822;2023-06-22T09:12:46;33.87;63.78
70166;SHT30;57541;47.408;18.822;2023-06-22T09:13:18;34.52;63.67
70166;SHT30;57541;47.408;18.822;2023-06-22T09:13:50;34.51;65.40
70166;SHT30;57541;47.408;18.822;2023-06-22T09:14:22;34.72;63.94
70166;SHT30;57541;47.408;18.822;2023-06-22T09:14:53;34.74;64.00
70166;SHT30;57541;47.408;18.822;2023-06-22T09:15:25;35.08;63.43
70166;SHT30;57541;47.408;18.822;2023-06-22T09:15:57;35.44;62.94
70166;SHT30;57541;47.408;18.822;2023-06-22T09:16:29;35.48;63.22
70166;SHT30;57541;47.408;18.822;2023-06-22T09:17:01;35.54;63.21
70166;SHT30;57541;47.408;18.822;2023-06-22T09:17:33;35.69;62.84
70166;SHT30;57541;47.408;18.822;2023-06-22T09:18:05;35.57;63.80
70166;SHT30;57541;47.408;18.822;2023-06-22T09:18:37;35.96;62.31
70166;SHT30;57541;47.408;18.822;2023-06-22T09:19:09;36.27;62.20
70166;SHT30;57541;47.408;18.822;2023-06-22T09:19:41;36.32;61.84
70166;SHT30;57541;47.408;18.822;2023-06-22T09:20:13;36.99;59.41
70166;SHT30;57541;47.408;18.822;2023-06-22T09:20:45;36.77;60.77
70166;SHT30;57541;47.408;18.822;2023-06-22T09:21:17;37.26;60.44
70166;SHT30;57541;47.408;18.822;2023-06-22T09:21:48;37.17;60.78
70166;SHT30;57541;47.408;18.822;2023-06-22T09:22:20;37.19;59.94
70166;SHT30;57541;47.408;18.822;2023-06-22T09:22:52;37.32;59.73
70166;SHT30;57541;47.408;18.822;2023-06-22T09:23:24;37.19;59.80
70166;SHT30;57541;47.408;18.822;2023-06-22T09:23:55;36.76;58.74
70166;SHT30;57541;47.408;18.822;2023-06-22T09:24:28;36.15;58.39
70166;SHT30;57541;47.408;18.822;2023-06-22T09:24:59;35.86;60.27
70166;SHT30;57541;47.408;18.822;2023-06-22T09:25:31;36.78;59.84
70166;SHT30;57541;47.408;18.822;2023-06-22T09:26:03;37.05;58.07
70166;SHT30;57541;47.408;18.822;2023-06-22T09:26:35;37.65;57.01
70166;SHT30;57541;47.408;18.822;2023-06-22T09:27:07;37.39;58.20
70166;SHT30;57541;47.408;18.822;2023-06-22T09:27:39;36.88;58.08
70166;SHT30;57541;47.408;18.822;2023-06-22T09:28:10;37.45;57.67
70166;SHT30;57541;47.408;18.822;2023-06-22T09:28:42;38.20;57.55
70166;SHT30;57541;47.408;18.822;2023-06-22T09:29:14;38.37;57.64
70166;SHT30;57541;47.408;18.822;2023-06-22T09:29:45;38.59;57.38
70166;SHT30;57541;47.408;18.822;2023-06-22T09:30:17;38.20;57.18
70166;SHT30;57541;47.408;18.822;2023-06-22T09:30:49;37.74;57.91
70166;SHT30;57541;47.408;18.822;2023-06-22T09:31:21;37.46;58.56
70166;SHT30;57541;47.408;18.822;2023-06-22T09:31:58;37.34;58.09
70166;SHT30;57541;47.408;18.822;2023-06-22T09:32:30;37.47;57.86
70166;SHT30;57541;47.408;18.822;2023-06-22T09:33:02;38.03;58.19
70166;SHT30;57541;47.408;18.822;2023-06-22T09:33:33;37.86;58.44
70166;SHT30;57541;47.408;18.822;2023-06-22T09:34:05;38.28;58.34
70166;SHT30;57541;47.408;18.822;2023-06-22T09:34:37;37.96;57.84
70166;SHT30;57541;47.408;18.822;2023-06-22T09:35:09;37.61;57.48
70166;SHT30;57541;47.408;18.822;2023-06-22T09:35:41;38.54;56.86
70166;SHT30;57541;47.408;18.822;2023-06-22T09:36:13;39.10;55.05
70166;SHT30;57541;47.408;18.822;2023-06-22T09:36:44;39.18;54.69
70166;SHT30;57541;47.408;18.822;2023-06-22T09:37:16;39.30;55.73
70166;SHT30;57541;47.408;18.822;2023-06-22T09:37:48;39.35;55.83
70166;SHT30;57541;47.408;18.822;2023-06-22T09:38:19;39.27;56.85
70166;SHT30;57541;47.408;18.822;2023-06-22T09:38:51;39.58;55.45
70166;SHT30;57541;47.408;18.822;2023-06-22T09:39:27;39.58;55.78
70166;SHT30;57541;47.408;18.822;2023-06-22T09:39:58;40.15;54.71
70166;SHT30;57541;47.408;18.822;2023-06-22T09:40:30;40.05;53.45
70166;SHT30;57541;47.408;18.822;2023-06-22T09:41:04;39.08;53.09
70166;SHT30;57541;47.408;18.822;2023-06-22T09:41:36;39.00;54.20
70166;SHT30;57541;47.408;18.822;2023-06-22T09:42:08;39.64;53.56
70166;SHT30;57541;47.408;18.822;2023-06-22T09:42:41;39.50;54.35
70166;SHT30;57541;47.408;18.822;2023-06-22T09:43:13;40.52;53.52
70166;SHT30;57541;47.408;18.822;2023-06-22T09:43:44;40.43;54.14
70166;SHT30;57541;47.408;18.822;2023-06-22T09:44:16;40.78;52.68
70166;SHT30;57541;47.408;18.822;2023-06-22T09:44:48;40.83;53.20
70166;SHT30;57541;47.408;18.822;2023-06-22T09:45:19;39.94;53.27
70166;SHT30;57541;47.408;18.822;2023-06-22T09:45:51;39.56;53.93
70166;SHT30;57541;47.408;18.822;2023-06-22T09:46:23;38.96;54.89
70166;SHT30;57541;47.408;18.822;2023-06-22T09:46:57;39.20;54.82
70166;SHT30;57541;47.408;18.822;2023-06-22T09:47:29;39.29;54.58
70166;SHT30;57541;47.408;18.822;2023-06-22T09:48:01;39.31;54.31
70166;SHT30;57541;47.408;18.822;2023-06-22T09:48:33;39.30;54.21
70166;SHT30;57541;47.408;18.822;2023-06-22T09:49:04;39.81;54.11
70166;SHT30;57541;47.408;18.822;2023-06-22T09:49:36;39.39;54.00
70166;SHT30;57541;47.408;18.822;2023-06-22T09:50:19;38.88;55.06
70166;SHT30;57541;47.408;18.822;2023-06-22T09:50:50;38.58;55.68
70166;SHT30;57541;47.408;18.822;2023-06-22T09:51:22;38.44;56.71
70166;SHT30;57541;47.408;18.822;2023-06-22T09:51:55;37.87;56.69
70166;SHT30;57541;47.408;18.822;2023-06-22T09:52:27;38.67;56.91
70166;SHT30;57541;47.408;18.822;2023-06-22T09:53:17;38.69;55.63
70166;SHT30;57541;47.408;18.822;2023-06-22T09:53:49;39.03;55.24
70166;SHT30;57541;47.408;18.822;2023-06-22T09:54:23;38.98;54.82
70166;SHT30;57541;47.408;18.822;2023-06-22T09:54:54;38.86;54.54
70166;SHT30;57541;47.408;18.822;2023-06-22T09:55:26;38.95;54.38
70166;SHT30;57541;47.408;18.822;2023-06-22T09:55:58;38.96;54.92
70166;SHT30;57541;47.408;18.822;2023-06-22T09:56:30;39.20;54.70
70166;SHT30;57541;47.408;18.822;2023-06-22T09:57:03;38.96;56.56
70166;SHT30;57541;47.408;18.822;2023-06-22T09:57:34;39.02;56.00
70166;SHT30;57541;47.408;18.822;2023-06-22T09:58:06;38.44;56.67
70166;SHT30;57541;47.408;18.822;2023-06-22T09:58:38;39.31;55.49
70166;SHT30;57541;47.408;18.822;2023-06-22T09:59:09;38.88;54.61
70166;SHT30;57541;47.408;18.822;2023-06-22T09:59:49;39.50;54.85
70166;SHT30;57541;47.408;18.822;2023-06-22T10:00:21;39.84;54.63
70166;SHT30;57541;47.408;18.822;2023-06-22T10:00:53;39.36;55.58
70166;SHT30;57541;47.408;18.822;2023-06-22T10:01:25;39.57;55.36
70166;SHT30;57541;47.408;18.822;2023-06-22T10:01:57;40.51;54.01
70166;SHT30;57541;47.408;18.822;2023-06-22T10:02:29;40.42;55.47
70166;SHT30;57541;47.408;18.822;2023-06-22T10:03:01;39.85;53.42
70166;SHT30;57541;47.408;18.822;2023-06-22T10:03:33;40.29;54.41
70166;SHT30;57541;47.408;18.822;2023-06-22T10:04:05;40.09;54.49
70166;SHT30;57541;47.408;18.822;2023-06-22T10:04:37;39.51;55.40
70166;SHT30;57541;47.408;18.822;2023-06-22T10:05:09;38.94;55.07
70166;SHT30;57541;47.408;18.822;2023-06-22T10:05:41;38.82;54.55
70166;SHT30;57541;47.408;18.822;2023-06-22T10:06:15;39.05;54.30
70166;SHT30;57541;47.408;18.822;2023-06-22T10:06:47;39.30;54.33